createdAt,value
2019-04-30T00:02:18.763Z,34.30
2019-04-30T00:06:27.366Z,34.83
2019-04-30T00:10:36.872Z,34.43
2019-04-30T00:14:39.937Z,35.07
2019-04-30T00:18:55.438Z,33.00
2019-04-30T00:22:50.440Z,34.97
2019-04-30T00:26:55.335Z,35.60
2019-04-30T00:31:00.017Z,35.23
2019-04-30T00:35:07.020Z,36.60
2019-04-30T00:39:13.289Z,34.27
2019-04-30T00:43:17.180Z,36.03
2019-04-30T00:47:21.720Z,33.27
2019-04-30T00:51:26.334Z,34.87
2019-04-30T00:55:30.886Z,34.30
2019-04-30T00:59:35.456Z,33.70
2019-04-30T01:03:46.412Z,34.43
2019-04-30T01:07:51.551Z,34.33
2019-04-30T01:11:55.305Z,33.93
2019-04-30T01:15:59.980Z,34.47
2019-04-30T01:20:05.081Z,34.10
2019-04-30T01:24:09.683Z,35.20
2019-04-30T01:28:16.435Z,36.37
2019-04-30T01:32:21.516Z,36.10
2019-04-30T01:36:26.072Z,35.57
2019-04-30T01:40:30.647Z,36.73
2019-04-30T01:44:35.208Z,36.40
2019-04-30T01:48:43.583Z,36.53
2019-04-30T01:52:55.218Z,36.70
2019-04-30T01:57:19.316Z,34.43
2019-04-30T02:01:25.049Z,37.10
2019-04-30T02:05:29.635Z,36.60
2019-04-30T02:09:34.188Z,35.77
2019-04-30T02:13:39.237Z,33.60
2019-04-30T02:17:43.975Z,34.73
2019-04-30T02:21:48.779Z,34.03
2019-04-30T02:25:53.432Z,34.30
2019-04-30T02:29:59.393Z,34.57
2019-04-30T02:34:13.752Z,35.07
2019-04-30T02:38:30.865Z,32.97
2019-04-30T02:42:39.700Z,34.23
2019-04-30T02:46:46.211Z,35.30
2019-04-30T02:50:52.179Z,34.53
2019-04-30T02:54:59.376Z,34.03
2019-04-30T02:59:04.262Z,35.57
2019-04-30T03:03:10.259Z,32.67
2019-04-30T03:07:15.010Z,30.97
2019-04-30T03:11:21.156Z,32.50
2019-04-30T03:15:25.790Z,30.57
2019-04-30T03:19:42.366Z,31.97
2019-04-30T03:23:47.039Z,31.70
2019-04-30T03:27:51.591Z,32.30
2019-04-30T03:31:56.144Z,32.17
2019-04-30T03:36:02.148Z,33.73
2019-04-30T03:40:12.711Z,30.50
2019-04-30T03:44:21.343Z,30.20
2019-04-30T03:48:20.268Z,31.17
2019-04-30T03:52:24.791Z,32.13
2019-04-30T03:56:29.873Z,31.53
2019-04-30T04:00:56.236Z,34.53
2019-04-30T04:05:20.254Z,34.17
2019-04-30T04:09:30.628Z,33.47
2019-04-30T04:13:35.273Z,31.10
2019-04-30T04:17:39.977Z,33.70
2019-04-30T04:21:44.508Z,31.50
2019-04-30T04:25:49.822Z,28.80
2019-04-30T04:29:54.634Z,29.60
2019-04-30T04:34:00.006Z,30.33
2019-04-30T04:38:04.865Z,31.13
2019-04-30T04:42:10.182Z,30.53
2019-04-30T04:46:14.977Z,28.77
2019-04-30T04:50:20.061Z,31.43
2019-04-30T04:54:24.912Z,33.83
2019-04-30T04:58:30.252Z,32.30
2019-04-30T05:02:44.748Z,32.60
2019-04-30T05:06:49.883Z,32.40
2019-04-30T05:10:54.643Z,33.63
2019-04-30T05:14:59.744Z,31.83
2019-04-30T05:19:04.583Z,31.87
2019-04-30T05:23:09.497Z,31.77
2019-04-30T05:27:14.092Z,31.83
2019-04-30T05:31:20.984Z,30.30
2019-04-30T05:35:24.897Z,29.93
2019-04-30T05:39:29.457Z,31.97
2019-04-30T05:43:34.114Z,29.47
2019-04-30T05:47:39.011Z,29.13
2019-04-30T05:51:53.580Z,28.50
2019-04-30T05:55:49.835Z,28.80
2019-04-30T05:59:54.402Z,28.23
2019-04-30T06:03:59.425Z,29.10
2019-04-30T06:08:04.069Z,28.07
2019-04-30T06:12:23.649Z,27.60
2019-04-30T06:16:29.857Z,28.80
2019-04-30T06:20:34.499Z,27.63
2019-04-30T06:24:39.577Z,28.27
2019-04-30T06:28:44.300Z,26.37
2019-04-30T06:32:49.641Z,27.27
2019-04-30T06:36:56.942Z,27.33
2019-04-30T06:41:00.960Z,25.30
2019-04-30T06:45:09.230Z,25.53
2019-04-30T06:49:13.829Z,26.33
2019-04-30T06:53:19.230Z,26.13
2019-04-30T06:57:26.985Z,23.77
2019-04-30T07:01:31.541Z,26.13
2019-04-30T07:05:37.058Z,24.63
2019-04-30T07:09:53.189Z,24.63
2019-04-30T07:13:55.085Z,24.90
2019-04-30T07:17:59.639Z,24.77
2019-04-30T07:22:04.287Z,25.90
2019-04-30T07:26:09.191Z,26.93
2019-04-30T07:30:14.174Z,23.87
2019-04-30T07:34:19.658Z,25.33
2019-04-30T07:38:25.168Z,25.43
2019-04-30T07:42:29.780Z,22.37
2019-04-30T07:46:35.106Z,24.70
2019-04-30T07:50:41.511Z,24.17
2019-04-30T07:54:46.392Z,24.07
2019-04-30T07:58:50.948Z,24.33
2019-04-30T08:03:20.796Z,22.80
2019-04-30T08:07:25.713Z,25.13
2019-04-30T08:11:34.517Z,25.80
2019-04-30T08:15:36.505Z,25.63
2019-04-30T08:19:41.200Z,24.10
2019-04-30T08:23:45.820Z,23.73
2019-04-30T08:27:50.367Z,23.53
2019-04-30T08:31:54.928Z,26.47
2019-04-30T08:36:00.962Z,26.33
2019-04-30T08:40:08.527Z,27.10
2019-04-30T08:44:12.743Z,26.13
2019-04-30T08:48:18.964Z,30.27
2019-04-30T08:52:23.724Z,32.83
2019-04-30T08:56:29.540Z,32.17
2019-04-30T09:00:34.222Z,33.10
2019-04-30T09:04:38.872Z,32.90
2019-04-30T09:08:44.841Z,30.47
2019-04-30T09:12:51.897Z,33.93
2019-04-30T09:16:55.692Z,34.10
2019-04-30T09:21:05.962Z,32.97
2019-04-30T09:25:06.573Z,34.53
2019-04-30T09:29:11.127Z,32.10
2019-04-30T09:33:15.715Z,34.53
2019-04-30T09:37:20.276Z,33.97
2019-04-30T09:41:24.891Z,30.70
2019-04-30T09:45:30.355Z,32.17
2019-04-30T09:49:34.917Z,30.43
2019-04-30T09:53:39.964Z,29.43
2019-04-30T09:57:44.912Z,28.33
2019-04-30T10:01:49.468Z,29.77
2019-04-30T10:05:53.979Z,25.13
2019-04-30T10:09:59.044Z,28.50
2019-04-30T10:14:03.803Z,26.63
2019-04-30T10:18:08.756Z,22.83
2019-04-30T10:22:13.377Z,24.47
2019-04-30T10:26:17.932Z,25.67
2019-04-30T10:30:25.422Z,23.50
2019-04-30T10:34:29.976Z,23.67
2019-04-30T10:38:34.546Z,25.20
2019-04-30T10:42:39.313Z,24.10
2019-04-30T10:46:43.937Z,24.37
2019-04-30T10:50:49.203Z,22.37
2019-04-30T10:54:53.833Z,22.23
2019-04-30T10:58:58.376Z,23.40
2019-04-30T11:03:02.927Z,26.33
2019-04-30T11:07:08.619Z,24.63
2019-04-30T11:11:13.199Z,25.07
2019-04-30T11:15:20.672Z,22.67
2019-04-30T11:19:24.002Z,23.83
2019-04-30T11:23:29.666Z,23.37
2019-04-30T11:27:34.931Z,22.93
2019-04-30T11:31:59.054Z,22.87
2019-04-30T11:36:05.088Z,22.73
2019-04-30T11:40:11.832Z,21.73
2019-04-30T11:44:28.545Z,23.47
2019-04-30T11:48:22.559Z,21.67
2019-04-30T11:52:27.120Z,21.93
2019-04-30T11:56:31.712Z,24.10
2019-04-30T12:00:39.463Z,22.37
2019-04-30T12:04:44.112Z,20.77
2019-04-30T12:09:13.367Z,19.93
2019-04-30T12:13:43.084Z,18.97
2019-04-30T12:17:47.635Z,18.53
2019-04-30T12:21:52.190Z,19.27
2019-04-30T12:25:59.411Z,16.00
2019-04-30T12:30:03.254Z,16.73
2019-04-30T12:34:07.755Z,14.63
2019-04-30T12:38:12.303Z,12.07
2019-04-30T12:42:18.692Z,12.77
2019-04-30T12:46:23.050Z,11.83
2019-04-30T12:50:39.174Z,11.33
2019-04-30T12:54:54.420Z,12.47
2019-04-30T12:58:58.983Z,13.00
2019-04-30T13:03:03.532Z,10.90
2019-04-30T13:07:10.587Z,12.03
2019-04-30T13:11:14.864Z,12.07
2019-04-30T13:15:19.852Z,11.70
2019-04-30T13:19:24.396Z,12.10
2019-04-30T13:23:29.770Z,12.20
2019-04-30T13:27:36.396Z,12.18
2019-04-30T13:31:41.052Z,11.48
2019-04-30T13:35:45.589Z,12.90
2019-04-30T13:40:11.949Z,10.67
2019-04-30T13:44:24.591Z,11.67
2019-04-30T13:48:29.188Z,12.27
2019-04-30T13:52:33.692Z,12.03
2019-04-30T13:56:39.679Z,11.50
2019-04-30T14:00:44.387Z,11.87
2019-04-30T14:05:23.238Z,11.80
2019-04-30T14:09:29.115Z,11.93
2019-04-30T14:13:33.659Z,11.97
2019-04-30T14:17:40.010Z,11.30
2019-04-30T14:21:44.380Z,11.07
2019-04-30T14:25:56.247Z,12.30
2019-04-30T14:29:55.282Z,12.57
2019-04-30T14:33:59.816Z,12.23
2019-04-30T14:38:05.245Z,13.20
2019-04-30T14:42:11.537Z,12.60
2019-04-30T14:46:41.491Z,15.00
2019-04-30T14:50:46.683Z,14.00
2019-04-30T14:55:18.818Z,12.57
2019-04-30T14:59:48.751Z,14.07
2019-04-30T15:03:53.455Z,14.30
2019-04-30T15:08:00.694Z,13.20
2019-04-30T15:12:04.743Z,13.93
2019-04-30T15:16:09.304Z,14.43
2019-04-30T15:20:14.329Z,14.13
2019-04-30T15:24:35.916Z,14.50
2019-04-30T15:28:41.462Z,15.73
2019-04-30T15:32:49.477Z,14.47
2019-04-30T15:36:54.127Z,16.37
2019-04-30T15:41:01.743Z,16.27
2019-04-30T15:45:06.288Z,17.30
2019-04-30T15:49:10.843Z,18.10
2019-04-30T15:53:15.392Z,18.33
2019-04-30T15:57:19.943Z,16.73
2019-04-30T16:01:24.496Z,17.83
2019-04-30T16:05:38.093Z,17.43
2019-04-30T16:09:58.470Z,18.33
2019-04-30T16:14:10.902Z,17.23
2019-04-30T16:18:15.552Z,17.00
2019-04-30T16:22:20.894Z,18.00
2019-04-30T16:26:25.579Z,17.63
2019-04-30T16:30:30.125Z,17.73
2019-04-30T16:34:34.761Z,16.97
2019-04-30T16:38:39.404Z,16.40
2019-04-30T16:42:43.989Z,15.30
2019-04-30T16:46:49.868Z,16.60
2019-04-30T16:50:54.821Z,15.73
2019-04-30T16:54:59.411Z,15.60
2019-04-30T16:59:06.127Z,15.07
2019-04-30T17:03:19.142Z,15.13
2019-04-30T17:07:51.884Z,14.80
2019-04-30T17:12:12.301Z,14.13
2019-04-30T17:16:19.547Z,14.67
2019-04-30T17:20:24.558Z,14.53
2019-04-30T17:24:30.309Z,13.50
2019-04-30T17:28:35.097Z,14.90
2019-04-30T17:32:39.670Z,14.37
2019-04-30T17:36:44.239Z,15.07
2019-04-30T17:40:49.771Z,14.53
2019-04-30T17:44:58.733Z,14.90
2019-04-30T17:49:00.740Z,14.73
2019-04-30T17:53:05.325Z,15.77
2019-04-30T17:57:10.687Z,14.57
2019-04-30T18:01:15.428Z,15.10
2019-04-30T18:05:19.983Z,15.20
2019-04-30T18:09:24.538Z,14.37
2019-04-30T18:13:29.273Z,13.40
2019-04-30T18:17:33.852Z,14.30
2019-04-30T18:21:42.525Z,14.03
2019-04-30T18:25:50.860Z,14.53
2019-04-30T18:29:55.399Z,14.20
2019-04-30T18:33:59.988Z,13.77
2019-04-30T18:38:04.664Z,14.33
2019-04-30T18:42:10.992Z,13.30
2019-04-30T18:46:15.470Z,12.87
2019-04-30T18:50:20.030Z,13.33
2019-04-30T18:54:24.603Z,12.07
2019-04-30T18:58:39.328Z,12.43
2019-04-30T19:02:35.396Z,12.23
2019-04-30T19:06:39.965Z,11.90
2019-04-30T19:11:00.692Z,11.83
2019-04-30T19:16:08.891Z,11.43
2019-04-30T19:20:00.645Z,11.43
2019-04-30T19:24:05.324Z,11.57
2019-04-30T19:28:14.249Z,10.50
2019-04-30T19:32:16.120Z,10.83
2019-04-30T19:36:22.152Z,10.73
2019-04-30T19:40:28.554Z,10.47
2019-04-30T19:44:33.290Z,11.73
2019-04-30T19:48:37.945Z,10.50
2019-04-30T19:52:42.516Z,10.67
2019-04-30T19:56:47.035Z,10.93
2019-04-30T20:00:51.605Z,11.03
2019-04-30T20:04:56.168Z,10.77
2019-04-30T20:09:00.881Z,11.00
2019-04-30T20:13:05.519Z,10.87
2019-04-30T20:17:12.910Z,12.57
2019-04-30T20:21:26.256Z,12.70
2019-04-30T20:25:25.325Z,12.60
2019-04-30T20:29:29.968Z,12.17
2019-04-30T20:33:34.853Z,12.93
2019-04-30T20:37:59.340Z,12.40
2019-04-30T20:42:03.342Z,12.37
2019-04-30T20:46:08.594Z,13.67
2019-04-30T20:50:13.367Z,12.73
2019-04-30T20:54:18.997Z,11.63
2019-04-30T20:58:23.568Z,12.30
2019-04-30T21:02:28.666Z,14.13
2019-04-30T21:06:33.399Z,16.20
2019-04-30T21:10:39.659Z,16.90
2019-04-30T21:14:44.356Z,18.03
2019-04-30T21:18:48.916Z,18.70
2019-04-30T21:22:53.451Z,21.43
2019-04-30T21:26:58.039Z,23.10
2019-04-30T21:31:21.548Z,21.77
2019-04-30T21:35:35.549Z,23.87
2019-04-30T21:39:40.142Z,24.03
2019-04-30T21:43:44.677Z,24.07
2019-04-30T21:47:56.183Z,24.60
2019-04-30T21:51:55.453Z,23.87
2019-04-30T21:56:00.019Z,24.77
2019-04-30T22:00:08.928Z,24.20
2019-04-30T22:04:13.505Z,24.43
2019-04-30T22:08:18.872Z,24.87
2019-04-30T22:12:23.521Z,25.03
2019-04-30T22:16:29.655Z,25.70
2019-04-30T22:20:34.360Z,25.00
2019-04-30T22:24:38.999Z,24.97
2019-04-30T22:28:43.478Z,24.23
2019-04-30T22:32:48.054Z,26.87
2019-04-30T22:36:52.620Z,27.43
2019-04-30T22:40:58.827Z,27.70
2019-04-30T22:45:04.644Z,27.87
2019-04-30T22:49:09.164Z,26.47
2019-04-30T22:53:13.731Z,27.27
2019-04-30T22:57:18.332Z,28.07
2019-04-30T23:01:57.192Z,27.43
2019-04-30T23:06:01.864Z,27.23
2019-04-30T23:10:08.002Z,27.17
2019-04-30T23:14:12.712Z,28.87
2019-04-30T23:18:17.334Z,29.53
2019-04-30T23:22:22.024Z,27.87
2019-04-30T23:26:26.634Z,28.73
2019-04-30T23:30:31.164Z,29.20
2019-04-30T23:34:35.728Z,28.93
2019-04-30T23:38:40.283Z,29.93
2019-04-30T23:42:44.871Z,30.10
2019-04-30T23:46:49.433Z,30.70
2019-04-30T23:50:53.955Z,30.67
2019-04-30T23:54:58.520Z,32.57
2019-04-30T23:59:03.093Z,33.63
